KSSF/SSF METAR and TAF weather

Enter ICAO airport designator
Station Type Date Time Source
KSSF METAR 2019/08/24 17:53 UTC NOAA

KSSF 241753Z 00000KT 10SM CLR 33/23 A2989 RMK AO2 SLP106 T03330228 10333 20267 58013 $


Station Type Date Time Source
KSSF Decoded METAR 2019/08/24 17:53 UTC NOAA

Station name not available
Aug 24, 2019 - 01:53 PM EDT / 2019.08.24 1753 UTC
Wind: Calm:0
Visibility: 10 mile(s):0
Sky conditions: clear
Temperature: 91.9 F (33.3 C)
Heat index: 100.6 F (38.1 C):1
Dew Point: 73.0 F (22.8 C)
Relative Humidity: 54%
Pressure (altimeter): 29.89 in. Hg (1012 hPa)
Pressure tendency: 0.04 inches (1.3 hPa) lower than three hours ago
ob: KSSF 241753Z 00000KT 10SM CLR 33/23 A2989 RMK AO2 SLP106 T03330228 10333 20267 58013
cycle: 18

Station Type Date Time Source
KSSF TAF 2019/08/24 18:42 UTC NOAA

TAF KSSF 241738Z 2418/2518 VRB04KT P6SM BKN150
FM242100 12006KT P6SM VCTS SCT040CB BKN250
FM250200 VRB04KT P6SM SCT020 BKN250

Example: see airport list